Accueil
METAR-TAF:

METAR-TAF

Aéroports :

Brevoort Island, Nunavut, Canada

latitude: 63-20N, longitude: 064-09W, altitude: 367 m

Observation

Le bulletin a été fait il y a 31 minutes, à 02:00 UTC
Vent 14 kt de nord/nord-ouest avec des rafales jusqu'à 20 kt
Température -25°C
Humidité 69%
Pression 1002 hPa
Ciel couvert à une hauteur de 12000 ft

METAR: CWOB 230200Z AUTO 33014G20KT ////SM //// OVC120 M25/M29 A2958

Heure: 21:31 (02:31 UTC)


TAF: absent

Observations et prévisions météorologiques de plus de 4000 aéroports (messages METAR et TAF).

Les stations disponibles sont représentées par des disques jaunes et rouges sur la carte.

Passer la souris dessus pour voir le nom de la station.

Cliquer dessus pour voir les observations et prévisions météorologiques.

Pour changer de carte: cliquez sur les boutons verts avec une croix noire pour zoomer, sur le bouton vert avec un tiret pour effectuer un zoom arrière, ou sur les flèches vertes pour les cartes adjacentes.


METAR-TAF: